sensor_id;sensor_type;location;lat;lon;timestamp;P1;durP1;ratioP1;P2;durP2;ratioP2
11665;SDS011;5889;51.350;6.708;2024-02-15T00:00:32;18.23;;;7.73;;
11665;SDS011;5889;51.350;6.708;2024-02-15T00:02:59;14.47;;;7.40;;
11665;SDS011;5889;51.350;6.708;2024-02-15T00:05:27;15.33;;;6.90;;
11665;SDS011;5889;51.350;6.708;2024-02-15T00:07:54;16.13;;;7.57;;
11665;SDS011;5889;51.350;6.708;2024-02-15T00:10:21;14.87;;;7.73;;
11665;SDS011;5889;51.350;6.708;2024-02-15T00:12:50;12.57;;;7.67;;
11665;SDS011;5889;51.350;6.708;2024-02-15T00:15:17;11.53;;;7.07;;
11665;SDS011;5889;51.350;6.708;2024-02-15T00:17:44;13.90;;;8.17;;
11665;SDS011;5889;51.350;6.708;2024-02-15T00:20:13;15.47;;;8.53;;
11665;SDS011;5889;51.350;6.708;2024-02-15T00:22:41;15.73;;;8.37;;
11665;SDS011;5889;51.350;6.708;2024-02-15T00:25:08;12.60;;;8.13;;
11665;SDS011;5889;51.350;6.708;2024-02-15T00:27:36;16.00;;;8.27;;
11665;SDS011;5889;51.350;6.708;2024-02-15T00:30:03;12.33;;;8.37;;
11665;SDS011;5889;51.350;6.708;2024-02-15T00:32:32;15.83;;;8.40;;
11665;SDS011;5889;51.350;6.708;2024-02-15T00:34:59;12.67;;;8.10;;
11665;SDS011;5889;51.350;6.708;2024-02-15T00:37:26;15.97;;;8.30;;
11665;SDS011;5889;51.350;6.708;2024-02-15T00:39:53;17.07;;;9.10;;
11665;SDS011;5889;51.350;6.708;2024-02-15T00:42:21;18.10;;;9.30;;
11665;SDS011;5889;51.350;6.708;2024-02-15T00:44:47;13.63;;;8.73;;
11665;SDS011;5889;51.350;6.708;2024-02-15T00:47:15;17.60;;;9.43;;
11665;SDS011;5889;51.350;6.708;2024-02-15T00:49:45;18.50;;;9.33;;
11665;SDS011;5889;51.350;6.708;2024-02-15T00:52:12;20.97;;;9.73;;
11665;SDS011;5889;51.350;6.708;2024-02-15T00:54:39;17.30;;;10.17;;
11665;SDS011;5889;51.350;6.708;2024-02-15T00:57:07;15.23;;;9.37;;
11665;SDS011;5889;51.350;6.708;2024-02-15T00:59:34;18.07;;;9.87;;
11665;SDS011;5889;51.350;6.708;2024-02-15T01:02:01;16.33;;;9.53;;
11665;SDS011;5889;51.350;6.708;2024-02-15T01:04:28;19.37;;;9.57;;
11665;SDS011;5889;51.350;6.708;2024-02-15T01:06:56;20.80;;;9.60;;
11665;SDS011;5889;51.350;6.708;2024-02-15T01:09:22;16.23;;;8.93;;
11665;SDS011;5889;51.350;6.708;2024-02-15T01:11:49;15.40;;;8.87;;
11665;SDS011;5889;51.350;6.708;2024-02-15T01:14:18;21.03;;;9.07;;
11665;SDS011;5889;51.350;6.708;2024-02-15T01:16:45;16.33;;;9.13;;
11665;SDS011;5889;51.350;6.708;2024-02-15T01:19:12;13.67;;;8.17;;
11665;SDS011;5889;51.350;6.708;2024-02-15T01:21:39;14.00;;;8.30;;
11665;SDS011;5889;51.350;6.708;2024-02-15T01:24:08;12.97;;;8.13;;
11665;SDS011;5889;51.350;6.708;2024-02-15T01:26:35;19.03;;;8.40;;
11665;SDS011;5889;51.350;6.708;2024-02-15T01:29:02;19.77;;;8.83;;
11665;SDS011;5889;51.350;6.708;2024-02-15T01:31:30;17.90;;;8.93;;
11665;SDS011;5889;51.350;6.708;2024-02-15T01:33:57;20.33;;;9.27;;
11665;SDS011;5889;51.350;6.708;2024-02-15T01:36:24;15.23;;;7.87;;
11665;SDS011;5889;51.350;6.708;2024-02-15T01:38:51;17.50;;;8.40;;
11665;SDS011;5889;51.350;6.708;2024-02-15T01:41:18;17.70;;;8.40;;
11665;SDS011;5889;51.350;6.708;2024-02-15T01:43:45;15.30;;;7.30;;
11665;SDS011;5889;51.350;6.708;2024-02-15T01:46:12;12.67;;;7.00;;
11665;SDS011;5889;51.350;6.708;2024-02-15T01:48:43;17.23;;;7.70;;
11665;SDS011;5889;51.350;6.708;2024-02-15T01:51:11;13.17;;;7.47;;
11665;SDS011;5889;51.350;6.708;2024-02-15T01:53:41;12.27;;;6.13;;
11665;SDS011;5889;51.350;6.708;2024-02-15T01:56:09;8.47;;;5.67;;
11665;SDS011;5889;51.350;6.708;2024-02-15T01:58:39;13.70;;;6.40;;
11665;SDS011;5889;51.350;6.708;2024-02-15T02:01:09;14.03;;;6.67;;
11665;SDS011;5889;51.350;6.708;2024-02-15T02:03:37;15.90;;;6.90;;
11665;SDS011;5889;51.350;6.708;2024-02-15T02:06:06;11.77;;;6.73;;
11665;SDS011;5889;51.350;6.708;2024-02-15T02:08:34;17.33;;;6.60;;
11665;SDS011;5889;51.350;6.708;2024-02-15T02:11:00;13.37;;;7.07;;
11665;SDS011;5889;51.350;6.708;2024-02-15T02:13:28;17.77;;;6.90;;
11665;SDS011;5889;51.350;6.708;2024-02-15T02:15:55;15.97;;;6.87;;
11665;SDS011;5889;51.350;6.708;2024-02-15T02:18:24;14.73;;;7.27;;
11665;SDS011;5889;51.350;6.708;2024-02-15T02:20:51;16.50;;;6.70;;
11665;SDS011;5889;51.350;6.708;2024-02-15T02:23:20;12.73;;;5.70;;
11665;SDS011;5889;51.350;6.708;2024-02-15T02:25:52;11.27;;;5.53;;
11665;SDS011;5889;51.350;6.708;2024-02-15T02:28:21;16.20;;;6.53;;
11665;SDS011;5889;51.350;6.708;2024-02-15T02:30:48;10.77;;;6.30;;
11665;SDS011;5889;51.350;6.708;2024-02-15T02:33:15;14.23;;;6.37;;
11665;SDS011;5889;51.350;6.708;2024-02-15T02:35:43;15.00;;;6.13;;
11665;SDS011;5889;51.350;6.708;2024-02-15T02:38:11;15.60;;;5.77;;
11665;SDS011;5889;51.350;6.708;2024-02-15T02:40:38;16.63;;;6.40;;
11665;SDS011;5889;51.350;6.708;2024-02-15T02:43:06;11.60;;;5.23;;
11665;SDS011;5889;51.350;6.708;2024-02-15T02:45:34;14.27;;;5.43;;
11665;SDS011;5889;51.350;6.708;2024-02-15T02:48:01;16.17;;;6.27;;
11665;SDS011;5889;51.350;6.708;2024-02-15T02:50:29;13.43;;;5.33;;
11665;SDS011;5889;51.350;6.708;2024-02-15T02:52:55;14.30;;;5.07;;
11665;SDS011;5889;51.350;6.708;2024-02-15T02:55:22;12.27;;;5.27;;
11665;SDS011;5889;51.350;6.708;2024-02-15T02:57:52;9.47;;;4.27;;
11665;SDS011;5889;51.350;6.708;2024-02-15T03:00:21;6.73;;;4.10;;
11665;SDS011;5889;51.350;6.708;2024-02-15T03:02:48;10.40;;;4.80;;
11665;SDS011;5889;51.350;6.708;2024-02-15T03:05:15;9.90;;;5.50;;
11665;SDS011;5889;51.350;6.708;2024-02-15T03:07:42;8.77;;;4.33;;
11665;SDS011;5889;51.350;6.708;2024-02-15T03:10:09;12.87;;;5.70;;
11665;SDS011;5889;51.350;6.708;2024-02-15T03:12:38;12.37;;;4.77;;
11665;SDS011;5889;51.350;6.708;2024-02-15T03:15:06;16.27;;;4.70;;
11665;SDS011;5889;51.350;6.708;2024-02-15T03:17:37;11.07;;;4.53;;
11665;SDS011;5889;51.350;6.708;2024-02-15T03:20:05;13.53;;;5.53;;
11665;SDS011;5889;51.350;6.708;2024-02-15T03:22:36;14.80;;;4.70;;
11665;SDS011;5889;51.350;6.708;2024-02-15T03:25:04;14.17;;;5.00;;
11665;SDS011;5889;51.350;6.708;2024-02-15T03:27:33;12.83;;;4.77;;
11665;SDS011;5889;51.350;6.708;2024-02-15T03:30:00;18.83;;;5.47;;
11665;SDS011;5889;51.350;6.708;2024-02-15T03:32:29;13.47;;;4.80;;
11665;SDS011;5889;51.350;6.708;2024-02-15T03:34:57;14.20;;;5.23;;
11665;SDS011;5889;51.350;6.708;2024-02-15T03:37:26;10.87;;;5.20;;
11665;SDS011;5889;51.350;6.708;2024-02-15T03:39:53;12.40;;;4.67;;
11665;SDS011;5889;51.350;6.708;2024-02-15T03:42:20;10.40;;;4.63;;
11665;SDS011;5889;51.350;6.708;2024-02-15T03:44:47;8.97;;;4.70;;
11665;SDS011;5889;51.350;6.708;2024-02-15T03:47:14;7.67;;;4.80;;
11665;SDS011;5889;51.350;6.708;2024-02-15T03:49:40;8.57;;;4.60;;
11665;SDS011;5889;51.350;6.708;2024-02-15T03:52:09;13.33;;;5.07;;
11665;SDS011;5889;51.350;6.708;2024-02-15T03:54:36;12.17;;;4.97;;
11665;SDS011;5889;51.350;6.708;2024-02-15T03:57:03;10.77;;;5.10;;
11665;SDS011;5889;51.350;6.708;2024-02-15T03:59:31;10.43;;;4.80;;
11665;SDS011;5889;51.350;6.708;2024-02-15T04:02:00;11.37;;;5.90;;
11665;SDS011;5889;51.350;6.708;2024-02-15T04:04:28;12.87;;;5.83;;
11665;SDS011;5889;51.350;6.708;2024-02-15T04:06:55;13.73;;;6.53;;
11665;SDS011;5889;51.350;6.708;2024-02-15T04:09:24;11.37;;;5.33;;
11665;SDS011;5889;51.350;6.708;2024-02-15T04:11:51;7.77;;;4.70;;
11665;SDS011;5889;51.350;6.708;2024-02-15T04:14:18;10.20;;;5.50;;
11665;SDS011;5889;51.350;6.708;2024-02-15T04:16:45;12.33;;;6.10;;
11665;SDS011;5889;51.350;6.708;2024-02-15T04:19:12;11.53;;;4.93;;
11665;SDS011;5889;51.350;6.708;2024-02-15T04:21:39;8.80;;;4.90;;
11665;SDS011;5889;51.350;6.708;2024-02-15T04:24:09;12.10;;;6.33;;
11665;SDS011;5889;51.350;6.708;2024-02-15T04:26:37;10.00;;;5.63;;
11665;SDS011;5889;51.350;6.708;2024-02-15T04:29:04;8.30;;;4.90;;
11665;SDS011;5889;51.350;6.708;2024-02-15T04:31:32;8.20;;;5.17;;
11665;SDS011;5889;51.350;6.708;2024-02-15T04:34:02;9.60;;;5.13;;
11665;SDS011;5889;51.350;6.708;2024-02-15T04:36:29;8.83;;;5.00;;
11665;SDS011;5889;51.350;6.708;2024-02-15T04:38:59;8.40;;;4.93;;
11665;SDS011;5889;51.350;6.708;2024-02-15T04:41:27;11.23;;;4.67;;
11665;SDS011;5889;51.350;6.708;2024-02-15T04:43:56;10.10;;;4.67;;
11665;SDS011;5889;51.350;6.708;2024-02-15T04:46:23;11.73;;;5.20;;
11665;SDS011;5889;51.350;6.708;2024-02-15T04:48:50;8.77;;;4.43;;
11665;SDS011;5889;51.350;6.708;2024-02-15T04:51:17;12.77;;;5.50;;
11665;SDS011;5889;51.350;6.708;2024-02-15T04:53:44;8.67;;;4.37;;
11665;SDS011;5889;51.350;6.708;2024-02-15T04:56:13;10.43;;;5.43;;
11665;SDS011;5889;51.350;6.708;2024-02-15T04:58:41;12.37;;;4.93;;
11665;SDS011;5889;51.350;6.708;2024-02-15T05:01:13;9.07;;;4.50;;
11665;SDS011;5889;51.350;6.708;2024-02-15T05:03:41;8.67;;;5.00;;
11665;SDS011;5889;51.350;6.708;2024-02-15T05:06:08;9.83;;;5.17;;
11665;SDS011;5889;51.350;6.708;2024-02-15T05:08:38;6.47;;;4.87;;
11665;SDS011;5889;51.350;6.708;2024-02-15T05:11:07;8.03;;;5.27;;
11665;SDS011;5889;51.350;6.708;2024-02-15T05:13:40;10.17;;;5.67;;
11665;SDS011;5889;51.350;6.708;2024-02-15T05:16:07;6.20;;;4.67;;
11665;SDS011;5889;51.350;6.708;2024-02-15T05:18:35;10.43;;;5.40;;
11665;SDS011;5889;51.350;6.708;2024-02-15T05:21:03;8.23;;;5.10;;
11665;SDS011;5889;51.350;6.708;2024-02-15T05:23:34;8.03;;;5.40;;
11665;SDS011;5889;51.350;6.708;2024-02-15T05:26:01;7.13;;;5.07;;
11665;SDS011;5889;51.350;6.708;2024-02-15T05:28:28;8.33;;;5.20;;
11665;SDS011;5889;51.350;6.708;2024-02-15T05:31:08;6.40;;;4.00;;
11665;SDS011;5889;51.350;6.708;2024-02-15T05:33:43;11.43;;;4.67;;
11665;SDS011;5889;51.350;6.708;2024-02-15T05:36:12;8.67;;;4.57;;
11665;SDS011;5889;51.350;6.708;2024-02-15T05:38:39;8.50;;;4.93;;
11665;SDS011;5889;51.350;6.708;2024-02-15T05:41:10;8.87;;;4.73;;
11665;SDS011;5889;51.350;6.708;2024-02-15T05:43:38;7.20;;;5.03;;
11665;SDS011;5889;51.350;6.708;2024-02-15T05:46:07;7.80;;;4.80;;
11665;SDS011;5889;51.350;6.708;2024-02-15T05:48:34;8.37;;;5.10;;
11665;SDS011;5889;51.350;6.708;2024-02-15T05:51:03;8.53;;;4.33;;
11665;SDS011;5889;51.350;6.708;2024-02-15T05:53:31;8.10;;;4.03;;
11665;SDS011;5889;51.350;6.708;2024-02-15T05:56:01;7.87;;;4.43;;
11665;SDS011;5889;51.350;6.708;2024-02-15T05:58:29;6.57;;;4.33;;
11665;SDS011;5889;51.350;6.708;2024-02-15T06:00:56;7.73;;;4.80;;
11665;SDS011;5889;51.350;6.708;2024-02-15T06:03:26;5.07;;;3.70;;
11665;SDS011;5889;51.350;6.708;2024-02-15T06:05:53;6.07;;;3.90;;
11665;SDS011;5889;51.350;6.708;2024-02-15T06:08:24;6.07;;;3.90;;
11665;SDS011;5889;51.350;6.708;2024-02-15T06:10:51;7.10;;;3.90;;
11665;SDS011;5889;51.350;6.708;2024-02-15T06:13:18;7.57;;;3.90;;
11665;SDS011;5889;51.350;6.708;2024-02-15T06:15:45;9.93;;;4.10;;
11665;SDS011;5889;51.350;6.708;2024-02-15T06:18:17;5.67;;;3.93;;
11665;SDS011;5889;51.350;6.708;2024-02-15T06:20:46;5.67;;;4.20;;
11665;SDS011;5889;51.350;6.708;2024-02-15T06:23:15;7.73;;;4.50;;
11665;SDS011;5889;51.350;6.708;2024-02-15T06:25:43;6.70;;;3.83;;
11665;SDS011;5889;51.350;6.708;2024-02-15T06:28:10;13.17;;;4.60;;
11665;SDS011;5889;51.350;6.708;2024-02-15T06:31:00;5.07;;;3.57;;
11665;SDS011;5889;51.350;6.708;2024-02-15T06:33:44;9.40;;;4.17;;
11665;SDS011;5889;51.350;6.708;2024-02-15T06:36:27;7.03;;;3.93;;
11665;SDS011;5889;51.350;6.708;2024-02-15T06:39:12;9.97;;;4.50;;
11665;SDS011;5889;51.350;6.708;2024-02-15T06:41:57;8.10;;;3.30;;
11665;SDS011;5889;51.350;6.708;2024-02-15T06:44:24;5.37;;;3.37;;
11665;SDS011;5889;51.350;6.708;2024-02-15T06:46:51;6.97;;;3.60;;
11665;SDS011;5889;51.350;6.708;2024-02-15T06:49:18;6.27;;;3.23;;
11665;SDS011;5889;51.350;6.708;2024-02-15T06:51:47;5.67;;;3.13;;
11665;SDS011;5889;51.350;6.708;2024-02-15T06:54:14;6.23;;;3.57;;
11665;SDS011;5889;51.350;6.708;2024-02-15T06:56:42;9.03;;;4.60;;
11665;SDS011;5889;51.350;6.708;2024-02-15T06:59:12;6.60;;;3.93;;
11665;SDS011;5889;51.350;6.708;2024-02-15T07:01:40;10.23;;;4.27;;
11665;SDS011;5889;51.350;6.708;2024-02-15T07:04:07;8.00;;;3.77;;
11665;SDS011;5889;51.350;6.708;2024-02-15T07:06:35;6.80;;;3.93;;
11665;SDS011;5889;51.350;6.708;2024-02-15T07:09:02;7.47;;;4.10;;
11665;SDS011;5889;51.350;6.708;2024-02-15T07:11:30;9.13;;;4.47;;
11665;SDS011;5889;51.350;6.708;2024-02-15T07:13:58;7.93;;;3.77;;
11665;SDS011;5889;51.350;6.708;2024-02-15T07:16:26;9.57;;;4.00;;
11665;SDS011;5889;51.350;6.708;2024-02-15T07:18:54;5.70;;;3.70;;
11665;SDS011;5889;51.350;6.708;2024-02-15T07:21:21;7.30;;;3.67;;
11665;SDS011;5889;51.350;6.708;2024-02-15T07:23:52;10.67;;;3.80;;
11665;SDS011;5889;51.350;6.708;2024-02-15T07:26:19;10.00;;;3.83;;
11665;SDS011;5889;51.350;6.708;2024-02-15T07:28:49;7.60;;;4.10;;
11665;SDS011;5889;51.350;6.708;2024-02-15T07:31:17;8.70;;;3.87;;
11665;SDS011;5889;51.350;6.708;2024-02-15T07:33:47;7.47;;;3.87;;
11665;SDS011;5889;51.350;6.708;2024-02-15T07:36:17;11.37;;;4.17;;
11665;SDS011;5889;51.350;6.708;2024-02-15T07:38:46;8.73;;;4.57;;
11665;SDS011;5889;51.350;6.708;2024-02-15T07:41:13;12.07;;;4.47;;
11665;SDS011;5889;51.350;6.708;2024-02-15T07:43:40;7.77;;;4.10;;
11665;SDS011;5889;51.350;6.708;2024-02-15T07:46:11;11.20;;;5.00;;
11665;SDS011;5889;51.350;6.708;2024-02-15T07:48:39;10.73;;;4.40;;
11665;SDS011;5889;51.350;6.708;2024-02-15T07:51:11;7.63;;;3.83;;
11665;SDS011;5889;51.350;6.708;2024-02-15T07:53:40;8.23;;;4.83;;
11665;SDS011;5889;51.350;6.708;2024-02-15T07:56:07;10.70;;;4.10;;
11665;SDS011;5889;51.350;6.708;2024-02-15T07:58:37;11.50;;;4.37;;
11665;SDS011;5889;51.350;6.708;2024-02-15T08:01:06;7.47;;;4.33;;
11665;SDS011;5889;51.350;6.708;2024-02-15T08:03:34;7.60;;;4.30;;
11665;SDS011;5889;51.350;6.708;2024-02-15T08:06:01;14.73;;;4.97;;
11665;SDS011;5889;51.350;6.708;2024-02-15T08:08:33;8.67;;;4.97;;
11665;SDS011;5889;51.350;6.708;2024-02-15T08:11:01;12.70;;;5.23;;
11665;SDS011;5889;51.350;6.708;2024-02-15T08:13:44;10.57;;;5.23;;
11665;SDS011;5889;51.350;6.708;2024-02-15T08:16:13;13.70;;;5.13;;
11665;SDS011;5889;51.350;6.708;2024-02-15T08:18:41;9.70;;;5.03;;
11665;SDS011;5889;51.350;6.708;2024-02-15T08:21:09;12.80;;;4.47;;
11665;SDS011;5889;51.350;6.708;2024-02-15T08:23:37;11.83;;;4.80;;
11665;SDS011;5889;51.350;6.708;2024-02-15T08:26:04;13.20;;;5.40;;
11665;SDS011;5889;51.350;6.708;2024-02-15T08:28:31;11.43;;;5.23;;
11665;SDS011;5889;51.350;6.708;2024-02-15T08:30:59;8.50;;;4.70;;
11665;SDS011;5889;51.350;6.708;2024-02-15T08:33:26;11.50;;;4.90;;
11665;SDS011;5889;51.350;6.708;2024-02-15T08:35:53;10.77;;;5.07;;
11665;SDS011;5889;51.350;6.708;2024-02-15T08:38:20;7.90;;;4.70;;
11665;SDS011;5889;51.350;6.708;2024-02-15T08:40:49;9.23;;;5.00;;
11665;SDS011;5889;51.350;6.708;2024-02-15T08:43:16;9.87;;;5.00;;
11665;SDS011;5889;51.350;6.708;2024-02-15T08:45:43;10.67;;;4.60;;
11665;SDS011;5889;51.350;6.708;2024-02-15T08:48:10;7.50;;;4.50;;
11665;SDS011;5889;51.350;6.708;2024-02-15T08:50:38;10.33;;;4.40;;
11665;SDS011;5889;51.350;6.708;2024-02-15T08:53:06;7.83;;;4.53;;
11665;SDS011;5889;51.350;6.708;2024-02-15T08:55:33;10.77;;;4.30;;
11665;SDS011;5889;51.350;6.708;2024-02-15T08:58:03;8.63;;;4.07;;
11665;SDS011;5889;51.350;6.708;2024-02-15T09:00:30;8.80;;;4.77;;
11665;SDS011;5889;51.350;6.708;2024-02-15T09:02:57;6.80;;;4.40;;
11665;SDS011;5889;51.350;6.708;2024-02-15T09:05:24;10.23;;;4.50;;
11665;SDS011;5889;51.350;6.708;2024-02-15T09:07:54;9.20;;;4.50;;
11665;SDS011;5889;51.350;6.708;2024-02-15T09:10:21;11.47;;;4.57;;
11665;SDS011;5889;51.350;6.708;2024-02-15T09:12:48;8.23;;;4.20;;
11665;SDS011;5889;51.350;6.708;2024-02-15T09:15:17;13.17;;;7.80;;
11665;SDS011;5889;51.350;6.708;2024-02-15T09:17:47;7.33;;;3.87;;
11665;SDS011;5889;51.350;6.708;2024-02-15T09:20:15;10.70;;;3.97;;
11665;SDS011;5889;51.350;6.708;2024-02-15T09:22:47;8.43;;;3.30;;
11665;SDS011;5889;51.350;6.708;2024-02-15T09:25:15;9.10;;;4.17;;
11665;SDS011;5889;51.350;6.708;2024-02-15T09:27:42;9.13;;;4.03;;
11665;SDS011;5889;51.350;6.708;2024-02-15T09:30:10;12.40;;;4.63;;
11665;SDS011;5889;51.350;6.708;2024-02-15T09:32:39;11.53;;;4.00;;
11665;SDS011;5889;51.350;6.708;2024-02-15T09:35:06;9.23;;;3.70;;
11665;SDS011;5889;51.350;6.708;2024-02-15T09:37:34;11.40;;;4.23;;
11665;SDS011;5889;51.350;6.708;2024-02-15T09:40:02;8.97;;;4.03;;
11665;SDS011;5889;51.350;6.708;2024-02-15T09:42:32;13.03;;;4.63;;
11665;SDS011;5889;51.350;6.708;2024-02-15T09:45:00;10.80;;;3.67;;
11665;SDS011;5889;51.350;6.708;2024-02-15T09:47:29;8.57;;;3.57;;
11665;SDS011;5889;51.350;6.708;2024-02-15T09:50:01;10.87;;;3.87;;
11665;SDS011;5889;51.350;6.708;2024-02-15T09:52:29;10.93;;;4.13;;
11665;SDS011;5889;51.350;6.708;2024-02-15T09:54:59;9.73;;;4.17;;
11665;SDS011;5889;51.350;6.708;2024-02-15T09:57:28;9.50;;;4.30;;
11665;SDS011;5889;51.350;6.708;2024-02-15T09:59:57;11.93;;;3.90;;
11665;SDS011;5889;51.350;6.708;2024-02-15T10:02:24;11.63;;;3.53;;
11665;SDS011;5889;51.350;6.708;2024-02-15T10:04:52;7.13;;;3.87;;
11665;SDS011;5889;51.350;6.708;2024-02-15T10:07:22;8.10;;;4.07;;
11665;SDS011;5889;51.350;6.708;2024-02-15T10:09:49;9.03;;;3.77;;
11665;SDS011;5889;51.350;6.708;2024-02-15T10:12:17;6.77;;;3.70;;
11665;SDS011;5889;51.350;6.708;2024-02-15T10:14:47;9.00;;;4.10;;
11665;SDS011;5889;51.350;6.708;2024-02-15T10:17:17;8.47;;;4.30;;
11665;SDS011;5889;51.350;6.708;2024-02-15T10:19:45;4.97;;;3.30;;
11665;SDS011;5889;51.350;6.708;2024-02-15T10:22:30;8.40;;;4.13;;
11665;SDS011;5889;51.350;6.708;2024-02-15T10:27:40;8.37;;;4.47;;
11665;SDS011;5889;51.350;6.708;2024-02-15T10:30:14;7.90;;;4.57;;
11665;SDS011;5889;51.350;6.708;2024-02-15T10:32:42;7.10;;;3.63;;
11665;SDS011;5889;51.350;6.708;2024-02-15T10:35:09;7.77;;;3.67;;
11665;SDS011;5889;51.350;6.708;2024-02-15T10:37:42;8.47;;;3.50;;
11665;SDS011;5889;51.350;6.708;2024-02-15T10:40:09;5.93;;;3.23;;
11665;SDS011;5889;51.350;6.708;2024-02-15T10:42:38;9.83;;;3.40;;
11665;SDS011;5889;51.350;6.708;2024-02-15T10:45:08;8.10;;;3.43;;
11665;SDS011;5889;51.350;6.708;2024-02-15T10:47:37;8.40;;;2.97;;
11665;SDS011;5889;51.350;6.708;2024-02-15T10:50:05;7.13;;;3.27;;
11665;SDS011;5889;51.350;6.708;2024-02-15T10:52:35;9.67;;;3.57;;
11665;SDS011;5889;51.350;6.708;2024-02-15T10:55:09;5.27;;;2.73;;
11665;SDS011;5889;51.350;6.708;2024-02-15T10:57:39;7.60;;;3.20;;
11665;SDS011;5889;51.350;6.708;2024-02-15T11:00:11;7.60;;;3.13;;
11665;SDS011;5889;51.350;6.708;2024-02-15T11:02:47;8.57;;;3.40;;
11665;SDS011;5889;51.350;6.708;2024-02-15T11:05:20;9.33;;;3.00;;
11665;SDS011;5889;51.350;6.708;2024-02-15T11:07:49;8.70;;;2.97;;
11665;SDS011;5889;51.350;6.708;2024-02-15T11:10:17;6.83;;;2.83;;
11665;SDS011;5889;51.350;6.708;2024-02-15T11:12:44;6.37;;;3.03;;
11665;SDS011;5889;51.350;6.708;2024-02-15T11:15:12;6.53;;;3.30;;
11665;SDS011;5889;51.350;6.708;2024-02-15T11:21:10;5.50;;;2.57;;
11665;SDS011;5889;51.350;6.708;2024-02-15T11:23:37;11.53;;;3.70;;
11665;SDS011;5889;51.350;6.708;2024-02-15T11:26:06;8.40;;;3.03;;
11665;SDS011;5889;51.350;6.708;2024-02-15T11:28:38;6.67;;;2.90;;
11665;SDS011;5889;51.350;6.708;2024-02-15T11:31:52;7.37;;;3.50;;
11665;SDS011;5889;51.350;6.708;2024-02-15T11:40:21;8.37;;;2.90;;
11665;SDS011;5889;51.350;6.708;2024-02-15T11:42:49;6.37;;;2.67;;
11665;SDS011;5889;51.350;6.708;2024-02-15T11:45:18;3.87;;;2.20;;
11665;SDS011;5889;51.350;6.708;2024-02-15T11:47:48;7.90;;;2.50;;
11665;SDS011;5889;51.350;6.708;2024-02-15T11:50:17;7.23;;;2.40;;
11665;SDS011;5889;51.350;6.708;2024-02-15T11:52:45;6.80;;;2.60;;
11665;SDS011;5889;51.350;6.708;2024-02-15T11:55:14;5.33;;;2.27;;
11665;SDS011;5889;51.350;6.708;2024-02-15T11:57:53;7.33;;;2.67;;
11665;SDS011;5889;51.350;6.708;2024-02-15T12:00:28;7.27;;;3.00;;
11665;SDS011;5889;51.350;6.708;2024-02-15T12:03:14;7.13;;;3.00;;
11665;SDS011;5889;51.350;6.708;2024-02-15T12:05:59;7.87;;;2.53;;
11665;SDS011;5889;51.350;6.708;2024-02-15T12:08:44;6.50;;;2.30;;
11665;SDS011;5889;51.350;6.708;2024-02-15T12:11:29;11.40;;;2.50;;
11665;SDS011;5889;51.350;6.708;2024-02-15T12:14:14;9.73;;;2.30;;
11665;SDS011;5889;51.350;6.708;2024-02-15T12:17:00;4.00;;;2.20;;
11665;SDS011;5889;51.350;6.708;2024-02-15T12:19:47;7.07;;;2.60;;
11665;SDS011;5889;51.350;6.708;2024-02-15T12:22:17;6.10;;;1.93;;
11665;SDS011;5889;51.350;6.708;2024-02-15T12:24:53;5.73;;;2.47;;
11665;SDS011;5889;51.350;6.708;2024-02-15T12:27:21;7.97;;;2.33;;
11665;SDS011;5889;51.350;6.708;2024-02-15T12:29:55;6.23;;;1.77;;
11665;SDS011;5889;51.350;6.708;2024-02-15T12:32:23;6.13;;;2.00;;
11665;SDS011;5889;51.350;6.708;2024-02-15T12:34:52;3.87;;;1.90;;
11665;SDS011;5889;51.350;6.708;2024-02-15T12:37:19;6.10;;;2.40;;
11665;SDS011;5889;51.350;6.708;2024-02-15T12:39:48;12.40;;;2.73;;
11665;SDS011;5889;51.350;6.708;2024-02-15T12:42:16;5.53;;;2.20;;
11665;SDS011;5889;51.350;6.708;2024-02-15T12:44:44;5.50;;;2.37;;
11665;SDS011;5889;51.350;6.708;2024-02-15T12:47:19;7.27;;;2.30;;
11665;SDS011;5889;51.350;6.708;2024-02-15T12:49:47;6.17;;;1.97;;
11665;SDS011;5889;51.350;6.708;2024-02-15T12:52:38;8.33;;;2.23;;
11665;SDS011;5889;51.350;6.708;2024-02-15T12:55:12;5.90;;;2.60;;
11665;SDS011;5889;51.350;6.708;2024-02-15T12:57:41;4.73;;;1.90;;
11665;SDS011;5889;51.350;6.708;2024-02-15T13:00:11;8.77;;;2.30;;
11665;SDS011;5889;51.350;6.708;2024-02-15T13:02:43;2.93;;;1.80;;
11665;SDS011;5889;51.350;6.708;2024-02-15T13:05:11;4.13;;;2.17;;
11665;SDS011;5889;51.350;6.708;2024-02-15T13:07:40;6.77;;;2.03;;
11665;SDS011;5889;51.350;6.708;2024-02-15T13:10:07;4.67;;;2.50;;
11665;SDS011;5889;51.350;6.708;2024-02-15T13:12:35;11.93;;;2.57;;
11665;SDS011;5889;51.350;6.708;2024-02-15T13:15:03;5.40;;;1.90;;
11665;SDS011;5889;51.350;6.708;2024-02-15T13:17:32;7.33;;;2.47;;
11665;SDS011;5889;51.350;6.708;2024-02-15T13:20:00;5.47;;;2.23;;
11665;SDS011;5889;51.350;6.708;2024-02-15T13:22:31;6.63;;;2.23;;
11665;SDS011;5889;51.350;6.708;2024-02-15T13:25:01;6.63;;;2.20;;
11665;SDS011;5889;51.350;6.708;2024-02-15T13:27:28;6.77;;;2.10;;
11665;SDS011;5889;51.350;6.708;2024-02-15T13:29:56;11.10;;;2.20;;
11665;SDS011;5889;51.350;6.708;2024-02-15T13:32:23;2.67;;;1.60;;
11665;SDS011;5889;51.350;6.708;2024-02-15T13:34:50;7.03;;;2.10;;
11665;SDS011;5889;51.350;6.708;2024-02-15T13:37:21;5.23;;;1.87;;
11665;SDS011;5889;51.350;6.708;2024-02-15T13:39:49;8.00;;;2.30;;
11665;SDS011;5889;51.350;6.708;2024-02-15T13:42:18;5.03;;;2.50;;
11665;SDS011;5889;51.350;6.708;2024-02-15T13:44:45;4.03;;;1.90;;
11665;SDS011;5889;51.350;6.708;2024-02-15T13:47:12;6.57;;;1.93;;
11665;SDS011;5889;51.350;6.708;2024-02-15T13:49:41;6.63;;;2.03;;
11665;SDS011;5889;51.350;6.708;2024-02-15T13:52:09;5.97;;;2.00;;
11665;SDS011;5889;51.350;6.708;2024-02-15T13:54:36;6.97;;;2.40;;
11665;SDS011;5889;51.350;6.708;2024-02-15T13:57:04;5.43;;;2.10;;
11665;SDS011;5889;51.350;6.708;2024-02-15T13:59:33;3.03;;;1.90;;
11665;SDS011;5889;51.350;6.708;2024-02-15T14:02:00;7.00;;;2.37;;
11665;SDS011;5889;51.350;6.708;2024-02-15T14:04:29;8.48;;;2.38;;
11665;SDS011;5889;51.350;6.708;2024-02-15T14:06:58;5.13;;;1.80;;
11665;SDS011;5889;51.350;6.708;2024-02-15T14:09:26;4.83;;;2.03;;
11665;SDS011;5889;51.350;6.708;2024-02-15T14:11:53;3.70;;;2.10;;
11665;SDS011;5889;51.350;6.708;2024-02-15T14:14:20;6.65;;;2.20;;
11665;SDS011;5889;51.350;6.708;2024-02-15T14:16:49;3.47;;;1.73;;
11665;SDS011;5889;51.350;6.708;2024-02-15T14:19:18;5.67;;;1.83;;
11665;SDS011;5889;51.350;6.708;2024-02-15T14:21:46;2.95;;;1.35;;
11665;SDS011;5889;51.350;6.708;2024-02-15T14:24:13;4.70;;;1.98;;
11665;SDS011;5889;51.350;6.708;2024-02-15T14:26:41;4.00;;;1.92;;
11665;SDS011;5889;51.350;6.708;2024-02-15T14:29:07;3.67;;;1.73;;
11665;SDS011;5889;51.350;6.708;2024-02-15T14:31:34;6.68;;;2.22;;
11665;SDS011;5889;51.350;6.708;2024-02-15T14:34:22;5.43;;;1.70;;
11665;SDS011;5889;51.350;6.708;2024-02-15T14:36:50;4.43;;;2.07;;
11665;SDS011;5889;51.350;6.708;2024-02-15T14:39:17;7.05;;;2.05;;
11665;SDS011;5889;51.350;6.708;2024-02-15T14:41:44;4.05;;;1.83;;
11665;SDS011;5889;51.350;6.708;2024-02-15T14:44:11;10.35;;;2.80;;
11665;SDS011;5889;51.350;6.708;2024-02-15T14:46:39;6.72;;;1.92;;
11665;SDS011;5889;51.350;6.708;2024-02-15T14:49:06;3.08;;;1.80;;
11665;SDS011;5889;51.350;6.708;2024-02-15T14:51:34;3.03;;;1.60;;
11665;SDS011;5889;51.350;6.708;2024-02-15T14:54:04;3.15;;;2.00;;
11665;SDS011;5889;51.350;6.708;2024-02-15T14:56:31;3.27;;;1.60;;
11665;SDS011;5889;51.350;6.708;2024-02-15T14:58:58;5.43;;;1.92;;
11665;SDS011;5889;51.350;6.708;2024-02-15T15:01:26;3.87;;;1.90;;
11665;SDS011;5889;51.350;6.708;2024-02-15T15:03:54;3.80;;;1.70;;
11665;SDS011;5889;51.350;6.708;2024-02-15T15:06:23;5.28;;;1.83;;
11665;SDS011;5889;51.350;6.708;2024-02-15T15:09:09;5.10;;;1.70;;
11665;SDS011;5889;51.350;6.708;2024-02-15T15:12:08;4.73;;;1.80;;
11665;SDS011;5889;51.350;6.708;2024-02-15T15:14:52;4.70;;;2.27;;
11665;SDS011;5889;51.350;6.708;2024-02-15T15:17:20;4.33;;;1.80;;
11665;SDS011;5889;51.350;6.708;2024-02-15T15:19:47;4.30;;;1.90;;